sensor_id;sensor_type;location;lat;lon;timestamp;pressure;altitude;pressure_sealevel;temperature;humidity
62011;BME280;47967;51.756;10.174;2022-10-16T04:01:59;99440.44;;;17.01;70.96
62011;BME280;47967;51.756;10.174;2022-10-16T04:06:02;99428.31;;;16.92;71.30
62011;BME280;47967;51.756;10.174;2022-10-16T04:10:06;99437.81;;;16.72;71.33
62011;BME280;47967;51.756;10.174;2022-10-16T04:14:08;99447.13;;;16.59;72.30
62011;BME280;47967;51.756;10.174;2022-10-16T04:18:12;99446.38;;;16.81;72.27
62011;BME280;47967;51.756;10.174;2022-10-16T04:22:15;99448.06;;;16.99;71.16
62011;BME280;47967;51.756;10.174;2022-10-16T04:26:18;99459.78;;;17.00;70.64
62011;BME280;47967;51.756;10.174;2022-10-16T04:30:21;99454.25;;;16.94;70.58
62011;BME280;47967;51.756;10.174;2022-10-16T04:34:25;99461.16;;;16.85;70.93
62011;BME280;47967;51.756;10.174;2022-10-16T04:38:28;99453.81;;;16.86;71.12
62011;BME280;47967;51.756;10.174;2022-10-16T04:42:30;99450.78;;;16.82;71.04
62011;BME280;47967;51.756;10.174;2022-10-16T04:46:33;99463.28;;;16.83;71.13
62011;BME280;47967;51.756;10.174;2022-10-16T04:50:37;99485.34;;;16.81;71.04
62011;BME280;47967;51.756;10.174;2022-10-16T04:54:40;99466.69;;;16.56;71.85
62011;BME280;47967;51.756;10.174;2022-10-16T04:58:43;99459.84;;;16.54;72.45
62011;BME280;47967;51.756;10.174;2022-10-16T05:02:45;99471.41;;;16.61;72.32
62011;BME280;47967;51.756;10.174;2022-10-16T05:06:49;99487.50;;;16.62;71.07
62011;BME280;47967;51.756;10.174;2022-10-16T05:10:52;99473.63;;;16.47;71.27
62011;BME280;47967;51.756;10.174;2022-10-16T05:14:55;99471.31;;;16.56;71.06
62011;BME280;47967;51.756;10.174;2022-10-16T05:19:00;99470.00;;;16.58;71.24
62011;BME280;47967;51.756;10.174;2022-10-16T05:23:24;99442.16;;;16.56;71.19
62011;BME280;47967;51.756;10.174;2022-10-16T05:27:26;99457.56;;;16.62;71.43
62011;BME280;47967;51.756;10.174;2022-10-16T05:31:29;99485.34;;;16.02;73.50
62011;BME280;47967;51.756;10.174;2022-10-16T05:35:33;99490.66;;;16.25;73.96
62011;BME280;47967;51.756;10.174;2022-10-16T05:39:37;99492.69;;;16.47;73.45
62011;BME280;47967;51.756;10.174;2022-10-16T05:43:40;99483.13;;;16.44;73.50
62011;BME280;47967;51.756;10.174;2022-10-16T05:47:42;99484.19;;;16.43;73.79
62011;BME280;47967;51.756;10.174;2022-10-16T05:51:45;99485.72;;;16.39;73.61
62011;BME280;47967;51.756;10.174;2022-10-16T05:55:52;99497.59;;;16.33;73.99
62011;BME280;47967;51.756;10.174;2022-10-16T05:59:55;99513.53;;;16.41;74.03
62011;BME280;47967;51.756;10.174;2022-10-16T06:03:58;99524.53;;;16.46;74.34
62011;BME280;47967;51.756;10.174;2022-10-16T06:08:00;99516.34;;;16.46;73.84
62011;BME280;47967;51.756;10.174;2022-10-16T06:12:04;99531.16;;;16.51;74.03
62011;BME280;47967;51.756;10.174;2022-10-16T06:16:08;99534.78;;;16.56;74.24
62011;BME280;47967;51.756;10.174;2022-10-16T06:20:11;99542.56;;;16.81;74.11
62011;BME280;47967;51.756;10.174;2022-10-16T06:24:13;99564.41;;;16.99;72.98
62011;BME280;47967;51.756;10.174;2022-10-16T06:28:17;99572.56;;;16.99;72.54
62011;BME280;47967;51.756;10.174;2022-10-16T06:32:20;99568.19;;;17.15;72.02
62011;BME280;47967;51.756;10.174;2022-10-16T06:36:24;99559.34;;;17.07;72.02
62011;BME280;47967;51.756;10.174;2022-10-16T06:40:27;99562.09;;;17.07;71.93
62011;BME280;47967;51.756;10.174;2022-10-16T06:44:31;99563.06;;;17.18;71.79
62011;BME280;47967;51.756;10.174;2022-10-16T06:48:34;99572.50;;;17.27;71.77
62011;BME280;47967;51.756;10.174;2022-10-16T06:52:36;99583.53;;;17.38;71.41
62011;BME280;47967;51.756;10.174;2022-10-16T06:56:39;99587.31;;;17.54;71.21
62011;BME280;47967;51.756;10.174;2022-10-16T07:00:43;99601.94;;;17.65;71.13
62011;BME280;47967;51.756;10.174;2022-10-16T07:04:46;99614.25;;;17.67;71.09
62011;BME280;47967;51.756;10.174;2022-10-16T07:08:49;99632.19;;;17.80;70.97
62011;BME280;47967;51.756;10.174;2022-10-16T07:12:52;99638.69;;;17.96;70.44
62011;BME280;47967;51.756;10.174;2022-10-16T07:16:55;99630.91;;;18.05;70.48
62011;BME280;47967;51.756;10.174;2022-10-16T07:21:03;99626.78;;;18.24;70.17
62011;BME280;47967;51.756;10.174;2022-10-16T07:25:07;99624.59;;;18.49;69.85
62011;BME280;47967;51.756;10.174;2022-10-16T07:29:14;99637.91;;;18.67;69.17
62011;BME280;47967;51.756;10.174;2022-10-16T07:33:18;99643.94;;;18.69;68.93
62011;BME280;47967;51.756;10.174;2022-10-16T07:37:21;99656.31;;;18.99;68.59
62011;BME280;47967;51.756;10.174;2022-10-16T07:41:24;99656.06;;;19.01;68.76
62011;BME280;47967;51.756;10.174;2022-10-16T07:45:30;99655.44;;;18.94;69.29
62011;BME280;47967;51.756;10.174;2022-10-16T07:49:35;99650.38;;;19.08;68.72
62011;BME280;47967;51.756;10.174;2022-10-16T07:53:37;99656.28;;;19.27;68.10
62011;BME280;47967;51.756;10.174;2022-10-16T07:57:40;99655.91;;;19.50;67.10
62011;BME280;47967;51.756;10.174;2022-10-16T08:01:43;99675.00;;;19.40;67.29
62011;BME280;47967;51.756;10.174;2022-10-16T08:05:47;99689.41;;;19.30;68.12
62011;BME280;47967;51.756;10.174;2022-10-16T08:09:50;99688.16;;;19.43;67.78
62011;BME280;47967;51.756;10.174;2022-10-16T08:13:53;99670.53;;;19.29;68.21
62011;BME280;47967;51.756;10.174;2022-10-16T08:17:57;99670.84;;;19.05;68.46
62011;BME280;47967;51.756;10.174;2022-10-16T08:22:02;99680.25;;;19.14;68.23
62011;BME280;47967;51.756;10.174;2022-10-16T08:26:06;99700.19;;;18.87;67.74
62011;BME280;47967;51.756;10.174;2022-10-16T08:30:10;99689.25;;;18.87;67.77
62011;BME280;47967;51.756;10.174;2022-10-16T08:34:12;99694.66;;;18.82;67.81
62011;BME280;47967;51.756;10.174;2022-10-16T08:38:16;99709.34;;;18.76;67.34
62011;BME280;47967;51.756;10.174;2022-10-16T08:42:31;99720.66;;;19.07;66.88
62011;BME280;47967;51.756;10.174;2022-10-16T08:46:43;99721.47;;;19.35;65.68
62011;BME280;47967;51.756;10.174;2022-10-16T08:50:52;99736.06;;;19.46;65.11
62011;BME280;47967;51.756;10.174;2022-10-16T08:54:56;99734.34;;;19.72;64.08
62011;BME280;47967;51.756;10.174;2022-10-16T08:58:59;99740.88;;;19.98;63.44
62011;BME280;47967;51.756;10.174;2022-10-16T09:03:10;99745.19;;;20.32;62.46
62011;BME280;47967;51.756;10.174;2022-10-16T09:07:19;99743.50;;;20.21;62.15
62011;BME280;47967;51.756;10.174;2022-10-16T09:11:36;99756.09;;;20.22;62.22
62011;BME280;47967;51.756;10.174;2022-10-16T09:15:49;99759.91;;;20.69;60.96
62011;BME280;47967;51.756;10.174;2022-10-16T09:20:03;99759.97;;;20.74;60.21
62011;BME280;47967;51.756;10.174;2022-10-16T09:24:17;99772.78;;;20.63;59.83
62011;BME280;47967;51.756;10.174;2022-10-16T09:28:24;99771.91;;;20.57;59.55
62011;BME280;47967;51.756;10.174;2022-10-16T09:32:28;99774.69;;;20.68;59.04
62011;BME280;47967;51.756;10.174;2022-10-16T09:36:35;99787.44;;;20.36;60.64
62011;BME280;47967;51.756;10.174;2022-10-16T09:40:42;99779.44;;;20.29;59.44
62011;BME280;47967;51.756;10.174;2022-10-16T09:44:49;99785.81;;;20.03;60.24
62011;BME280;47967;51.756;10.174;2022-10-16T09:48:55;99788.69;;;20.18;60.45
62011;BME280;47967;51.756;10.174;2022-10-16T09:53:07;99778.53;;;20.19;60.80
62011;BME280;47967;51.756;10.174;2022-10-16T09:57:13;99799.59;;;20.56;59.90
62011;BME280;47967;51.756;10.174;2022-10-16T10:01:17;99803.84;;;20.79;59.22
62011;BME280;47967;51.756;10.174;2022-10-16T10:05:22;99801.78;;;21.07;58.75
62011;BME280;47967;51.756;10.174;2022-10-16T10:09:27;99798.50;;;21.15;59.44
62011;BME280;47967;51.756;10.174;2022-10-16T10:13:32;99811.88;;;20.96;57.75
62011;BME280;47967;51.756;10.174;2022-10-16T10:17:47;99808.22;;;21.59;55.81
62011;BME280;47967;51.756;10.174;2022-10-16T10:21:51;99816.63;;;21.21;56.11
62011;BME280;47967;51.756;10.174;2022-10-16T10:25:56;99809.88;;;21.65;56.14
62011;BME280;47967;51.756;10.174;2022-10-16T10:30:06;99810.38;;;21.52;56.14
62011;BME280;47967;51.756;10.174;2022-10-16T10:34:26;99815.00;;;21.41;56.61
62011;BME280;47967;51.756;10.174;2022-10-16T10:38:41;99805.50;;;21.64;56.28
62011;BME280;47967;51.756;10.174;2022-10-16T10:42:50;99809.34;;;21.73;55.19
62011;BME280;47967;51.756;10.174;2022-10-16T10:46:58;99823.91;;;21.95;55.88
62011;BME280;47967;51.756;10.174;2022-10-16T10:51:08;99818.41;;;22.41;53.41
62011;BME280;47967;51.756;10.174;2022-10-16T10:55:22;99830.19;;;22.62;52.26
62011;BME280;47967;51.756;10.174;2022-10-16T11:04:40;99831.97;;;23.03;51.70
62011;BME280;47967;51.756;10.174;2022-10-16T11:08:52;99823.53;;;22.74;51.15
62011;BME280;47967;51.756;10.174;2022-10-16T11:13:09;99831.97;;;23.03;50.49
62011;BME280;47967;51.756;10.174;2022-10-16T11:17:16;99830.25;;;23.23;51.04
62011;BME280;47967;51.756;10.174;2022-10-16T11:21:22;99830.41;;;22.81;50.67
62011;BME280;47967;51.756;10.174;2022-10-16T11:25:33;99834.44;;;22.99;50.51
62011;BME280;47967;51.756;10.174;2022-10-16T11:29:43;99835.13;;;22.60;50.70
62011;BME280;47967;51.756;10.174;2022-10-16T11:33:49;99829.97;;;23.19;50.74
62011;BME280;47967;51.756;10.174;2022-10-16T11:37:55;99836.97;;;22.91;50.23
62011;BME280;47967;51.756;10.174;2022-10-16T11:42:03;99838.28;;;23.09;49.11
62011;BME280;47967;51.756;10.174;2022-10-16T11:46:12;99834.34;;;23.30;47.46
62011;BME280;47967;51.756;10.174;2022-10-16T11:50:23;99842.09;;;23.13;47.11
62011;BME280;47967;51.756;10.174;2022-10-16T11:54:33;99839.28;;;23.33;47.77
62011;BME280;47967;51.756;10.174;2022-10-16T11:58:49;99836.28;;;23.25;46.69
62011;BME280;47967;51.756;10.174;2022-10-16T12:02:59;99839.94;;;23.05;46.39
62011;BME280;47967;51.756;10.174;2022-10-16T12:07:08;99832.31;;;22.91;45.84
62011;BME280;47967;51.756;10.174;2022-10-16T12:11:24;99832.63;;;22.74;46.65
62011;BME280;47967;51.756;10.174;2022-10-16T12:15:34;99835.06;;;22.91;46.69
62011;BME280;47967;51.756;10.174;2022-10-16T12:19:58;99835.13;;;22.70;46.47
62011;BME280;47967;51.756;10.174;2022-10-16T12:24:03;99838.44;;;22.52;47.03
62011;BME280;47967;51.756;10.174;2022-10-16T12:28:19;99843.31;;;22.91;46.19
62011;BME280;47967;51.756;10.174;2022-10-16T12:32:28;99838.41;;;22.67;45.88
62011;BME280;47967;51.756;10.174;2022-10-16T12:36:49;99847.53;;;22.52;45.89
62011;BME280;47967;51.756;10.174;2022-10-16T12:40:58;99851.31;;;22.77;47.09
62011;BME280;47967;51.756;10.174;2022-10-16T12:45:21;99845.25;;;22.75;45.23
62011;BME280;47967;51.756;10.174;2022-10-16T12:49:34;99847.16;;;22.85;45.04
62011;BME280;47967;51.756;10.174;2022-10-16T12:53:38;99859.31;;;22.68;46.73
62011;BME280;47967;51.756;10.174;2022-10-16T13:02:49;99865.41;;;22.24;47.88
62011;BME280;47967;51.756;10.174;2022-10-16T13:06:59;99860.75;;;22.40;48.04
62011;BME280;47967;51.756;10.174;2022-10-16T13:11:14;99863.19;;;22.36;48.71
62011;BME280;47967;51.756;10.174;2022-10-16T13:15:27;99856.28;;;22.65;47.07
62011;BME280;47967;51.756;10.174;2022-10-16T13:19:43;99872.56;;;22.41;47.62
62011;BME280;47967;51.756;10.174;2022-10-16T13:23:54;99873.66;;;22.29;47.91
62011;BME280;47967;51.756;10.174;2022-10-16T13:28:01;99897.25;;;22.66;48.03
62011;BME280;47967;51.756;10.174;2022-10-16T13:32:08;99889.75;;;23.03;46.24
62011;BME280;47967;51.756;10.174;2022-10-16T13:36:19;99887.84;;;23.03;46.18
62011;BME280;47967;51.756;10.174;2022-10-16T13:40:24;99899.41;;;22.85;46.29
62011;BME280;47967;51.756;10.174;2022-10-16T13:44:27;99906.56;;;22.86;45.93
62011;BME280;47967;51.756;10.174;2022-10-16T13:48:30;99896.69;;;22.90;45.93
62011;BME280;47967;51.756;10.174;2022-10-16T13:52:33;99905.41;;;23.23;46.84
62011;BME280;47967;51.756;10.174;2022-10-16T13:56:38;99908.78;;;23.65;46.21
62011;BME280;47967;51.756;10.174;2022-10-16T14:00:53;99905.19;;;23.70;45.13
62011;BME280;47967;51.756;10.174;2022-10-16T14:04:57;99908.53;;;23.61;43.52
62011;BME280;47967;51.756;10.174;2022-10-16T14:09:03;99912.34;;;23.71;43.22
62011;BME280;47967;51.756;10.174;2022-10-16T14:13:15;99911.56;;;23.60;43.67
62011;BME280;47967;51.756;10.174;2022-10-16T14:17:22;99913.19;;;23.66;44.16
62011;BME280;47967;51.756;10.174;2022-10-16T14:21:25;99914.00;;;23.72;44.13
62011;BME280;47967;51.756;10.174;2022-10-16T14:25:30;99924.44;;;23.75;44.39
62011;BME280;47967;51.756;10.174;2022-10-16T14:29:34;99920.50;;;23.86;43.63
62011;BME280;47967;51.756;10.174;2022-10-16T14:33:37;99919.44;;;23.82;43.45
62011;BME280;47967;51.756;10.174;2022-10-16T14:37:39;99927.19;;;23.75;43.31
62011;BME280;47967;51.756;10.174;2022-10-16T14:41:45;99927.16;;;23.80;43.72
62011;BME280;47967;51.756;10.174;2022-10-16T14:45:53;99931.38;;;24.12;42.94
62011;BME280;47967;51.756;10.174;2022-10-16T14:49:56;99939.09;;;24.15;43.90
62011;BME280;47967;51.756;10.174;2022-10-16T14:54:00;99937.78;;;24.42;43.63
62011;BME280;47967;51.756;10.174;2022-10-16T14:58:03;99935.13;;;24.32;43.55
62011;BME280;47967;51.756;10.174;2022-10-16T15:02:18;99945.38;;;23.76;43.75
62011;BME280;47967;51.756;10.174;2022-10-16T15:06:23;99952.22;;;23.78;44.17
62011;BME280;47967;51.756;10.174;2022-10-16T15:10:27;99948.06;;;23.86;44.53
62011;BME280;47967;51.756;10.174;2022-10-16T15:14:31;99944.56;;;23.70;44.24
62011;BME280;47967;51.756;10.174;2022-10-16T15:18:35;99930.13;;;23.89;44.35
62011;BME280;47967;51.756;10.174;2022-10-16T15:22:37;99933.41;;;23.91;44.82
62011;BME280;47967;51.756;10.174;2022-10-16T15:26:40;99934.81;;;23.88;44.78
62011;BME280;47967;51.756;10.174;2022-10-16T15:30:43;99929.16;;;24.14;44.39
62011;BME280;47967;51.756;10.174;2022-10-16T15:34:48;99933.72;;;23.94;44.44
62011;BME280;47967;51.756;10.174;2022-10-16T15:38:51;99931.97;;;24.09;44.37
62011;BME280;47967;51.756;10.174;2022-10-16T15:42:54;99944.13;;;24.03;44.86
62011;BME280;47967;51.756;10.174;2022-10-16T15:46:57;99958.28;;;23.80;48.01
62011;BME280;47967;51.756;10.174;2022-10-16T15:51:04;99965.69;;;23.14;47.83
62011;BME280;47967;51.756;10.174;2022-10-16T15:55:08;99969.06;;;22.80;49.69
62011;BME280;47967;51.756;10.174;2022-10-16T15:59:11;99973.69;;;22.23;51.47
62011;BME280;47967;51.756;10.174;2022-10-16T16:03:14;99971.34;;;21.68;52.55
62011;BME280;47967;51.756;10.174;2022-10-16T16:07:21;99973.88;;;21.27;52.91
62011;BME280;47967;51.756;10.174;2022-10-16T16:11:23;99972.63;;;20.97;54.06
62011;BME280;47967;51.756;10.174;2022-10-16T16:15:26;99978.84;;;20.55;55.07
62011;BME280;47967;51.756;10.174;2022-10-16T16:19:29;99985.47;;;20.26;56.03
62011;BME280;47967;51.756;10.174;2022-10-16T16:23:34;99980.94;;;20.15;56.68
62011;BME280;47967;51.756;10.174;2022-10-16T16:27:37;99997.88;;;20.07;57.30
62011;BME280;47967;51.756;10.174;2022-10-16T16:31:41;99994.56;;;20.05;57.46
62011;BME280;47967;51.756;10.174;2022-10-16T16:35:44;99992.13;;;20.08;57.62
62011;BME280;47967;51.756;10.174;2022-10-16T16:39:48;100000.66;;;20.12;57.36
62011;BME280;47967;51.756;10.174;2022-10-16T16:43:50;100007.53;;;20.14;57.81
62011;BME280;47967;51.756;10.174;2022-10-16T16:47:53;100019.28;;;20.15;57.12
62011;BME280;47967;51.756;10.174;2022-10-16T16:51:56;100011.25;;;20.30;57.33
62011;BME280;47967;51.756;10.174;2022-10-16T16:56:02;99999.78;;;20.34;57.11
62011;BME280;47967;51.756;10.174;2022-10-16T17:00:06;100003.41;;;20.12;57.41
62011;BME280;47967;51.756;10.174;2022-10-16T17:04:09;99997.47;;;19.76;58.24
62011;BME280;47967;51.756;10.174;2022-10-16T17:08:12;100012.94;;;19.43;59.06
62011;BME280;47967;51.756;10.174;2022-10-16T17:12:17;100041.00;;;19.16;59.90
62011;BME280;47967;51.756;10.174;2022-10-16T17:16:20;100046.44;;;18.82;60.63
62011;BME280;47967;51.756;10.174;2022-10-16T17:20:23;100038.34;;;19.04;60.38
62011;BME280;47967;51.756;10.174;2022-10-16T17:24:27;100036.91;;;18.84;60.33
62011;BME280;47967;51.756;10.174;2022-10-16T17:28:32;100041.81;;;18.65;60.99
62011;BME280;47967;51.756;10.174;2022-10-16T17:32:35;100057.75;;;18.56;61.31
62011;BME280;47967;51.756;10.174;2022-10-16T17:36:38;100064.22;;;18.50;61.61
62011;BME280;47967;51.756;10.174;2022-10-16T17:40:44;100063.72;;;18.53;61.41
62011;BME280;47967;51.756;10.174;2022-10-16T17:44:48;100058.00;;;18.55;61.57
62011;BME280;47967;51.756;10.174;2022-10-16T17:48:52;100061.34;;;18.57;61.72
62011;BME280;47967;51.756;10.174;2022-10-16T17:52:55;100056.63;;;18.23;62.45
62011;BME280;47967;51.756;10.174;2022-10-16T17:56:57;100070.94;;;17.90;62.98
62011;BME280;47967;51.756;10.174;2022-10-16T18:01:10;100079.16;;;17.78;63.85
62011;BME280;47967;51.756;10.174;2022-10-16T18:05:13;100076.06;;;17.74;63.70
62011;BME280;47967;51.756;10.174;2022-10-16T18:09:18;100082.00;;;17.83;63.36
62011;BME280;47967;51.756;10.174;2022-10-16T18:13:21;100082.47;;;17.92;62.94
62011;BME280;47967;51.756;10.174;2022-10-16T18:17:25;100091.13;;;18.13;62.67
62011;BME280;47967;51.756;10.174;2022-10-16T18:21:28;100100.03;;;18.08;62.67
62011;BME280;47967;51.756;10.174;2022-10-16T18:25:31;100101.56;;;18.04;62.97
62011;BME280;47967;51.756;10.174;2022-10-16T18:29:34;100102.25;;;18.11;62.81
62011;BME280;47967;51.756;10.174;2022-10-16T18:33:40;100097.50;;;18.06;62.96
62011;BME280;47967;51.756;10.174;2022-10-16T18:37:48;100100.75;;;18.03;63.12
62011;BME280;47967;51.756;10.174;2022-10-16T18:41:52;100100.19;;;18.30;62.63
62011;BME280;47967;51.756;10.174;2022-10-16T18:46:01;100101.69;;;18.38;62.46
62011;BME280;47967;51.756;10.174;2022-10-16T18:50:07;100111.28;;;18.40;62.68
62011;BME280;47967;51.756;10.174;2022-10-16T18:54:12;100123.38;;;18.16;63.65
62011;BME280;47967;51.756;10.174;2022-10-16T18:58:15;100127.06;;;18.10;63.57
62011;BME280;47967;51.756;10.174;2022-10-16T19:02:17;100127.28;;;18.20;63.30
62011;BME280;47967;51.756;10.174;2022-10-16T19:06:22;100115.75;;;18.30;62.75
62011;BME280;47967;51.756;10.174;2022-10-16T19:10:25;100118.53;;;18.06;63.81
62011;BME280;47967;51.756;10.174;2022-10-16T19:14:27;100126.53;;;17.96;63.77
62011;BME280;47967;51.756;10.174;2022-10-16T19:18:32;100125.44;;;17.97;64.07
62011;BME280;47967;51.756;10.174;2022-10-16T19:22:40;100137.91;;;18.04;63.91
62011;BME280;47967;51.756;10.174;2022-10-16T19:26:54;100144.88;;;18.12;63.87
62011;BME280;47967;51.756;10.174;2022-10-16T19:31:00;100131.19;;;18.24;63.67
62011;BME280;47967;51.756;10.174;2022-10-16T19:35:07;100135.00;;;18.23;63.70
62011;BME280;47967;51.756;10.174;2022-10-16T19:39:13;100131.41;;;18.34;63.44
62011;BME280;47967;51.756;10.174;2022-10-16T19:43:17;100134.03;;;18.29;63.48
62011;BME280;47967;51.756;10.174;2022-10-16T19:47:20;100127.31;;;18.08;63.92
62011;BME280;47967;51.756;10.174;2022-10-16T19:51:24;100131.00;;;17.78;64.84
62011;BME280;47967;51.756;10.174;2022-10-16T19:55:30;100146.81;;;17.76;65.13
62011;BME280;47967;51.756;10.174;2022-10-16T19:59:33;100148.34;;;17.72;65.42
62011;BME280;47967;51.756;10.174;2022-10-16T20:03:36;100149.06;;;18.03;64.76
62011;BME280;47967;51.756;10.174;2022-10-16T20:07:40;100151.47;;;18.28;64.30
62011;BME280;47967;51.756;10.174;2022-10-16T20:11:44;100167.75;;;18.35;64.06
62011;BME280;47967;51.756;10.174;2022-10-16T20:15:48;100165.25;;;18.33;64.33
62011;BME280;47967;51.756;10.174;2022-10-16T20:19:51;100161.78;;;18.38;64.08
62011;BME280;47967;51.756;10.174;2022-10-16T20:23:53;100158.50;;;18.36;64.47
62011;BME280;47967;51.756;10.174;2022-10-16T20:27:58;100178.88;;;18.45;64.70
62011;BME280;47967;51.756;10.174;2022-10-16T20:32:00;100175.56;;;18.43;64.66
62011;BME280;47967;51.756;10.174;2022-10-16T20:36:04;100184.84;;;18.42;64.71
62011;BME280;47967;51.756;10.174;2022-10-16T20:40:08;100175.88;;;18.47;64.75
62011;BME280;47967;51.756;10.174;2022-10-16T20:44:12;100178.06;;;18.45;64.82
62011;BME280;47967;51.756;10.174;2022-10-16T20:48:15;100169.00;;;18.44;64.92
62011;BME280;47967;51.756;10.174;2022-10-16T20:52:17;100163.41;;;18.51;64.95
62011;BME280;47967;51.756;10.174;2022-10-16T20:56:21;100163.59;;;18.32;66.17
